Time;durP1;ratioP1;P1;durP2;ratioP2;P2;SDS_P1;SDS_P2;PMS_P1;PMS_P2;Temp;Humidity;BMP_temperature;BMP_pressure;BME280_temperature;BME280_humidity;BME280_pressure;Samples;Min_cycle;Max_cycle;Signal;HPM_P1;HPM_P2
2023/10/10 00:00:23;;;;;;;58.28;36.40;;;22.80;96.00;;;;;;6246499;23;20000;-74
2023/10/10 00:02:52;;;;;;;49.97;31.87;;;22.70;96.00;;;;;;6244858;23;20310;-74
2023/10/10 00:05:19;;;;;;;59.22;38.10;;;22.70;96.00;;;;;;6219366;23;20015;-74
2023/10/10 00:07:46;;;;;;;69.32;45.17;;;22.70;96.00;;;;;;6247098;23;20315;-73
2023/10/10 00:10:13;;;;;;;49.47;32.85;;;22.60;96.10;;;;;;6246041;23;20001;-74
2023/10/10 00:12:40;;;;;;;52.95;32.65;;;22.60;96.10;;;;;;6245070;23;20411;-74
2023/10/10 00:15:12;;;;;;;45.42;30.63;;;22.60;96.10;;;;;;6246401;23;20008;-74
2023/10/10 00:17:37;;;;;;;54.80;33.15;;;22.60;96.10;;;;;;6246124;23;20419;-74
2023/10/10 00:20:16;;;;;;;49.50;32.95;;;22.60;96.20;;;;;;6245818;23;20011;-74
2023/10/10 00:22:46;;;;;;;47.78;31.05;;;22.50;96.20;;;;;;6245148;23;20000;-74
2023/10/10 00:25:13;;;;;;;51.65;32.38;;;22.50;96.10;;;;;;6245779;23;20548;-74
2023/10/10 00:27:46;;;;;;;58.28;36.22;;;22.60;96.10;;;;;;6245798;23;20043;-74
2023/10/10 00:30:12;;;;;;;48.63;31.30;;;22.60;96.10;;;;;;6245967;23;20339;-74
2023/10/10 00:32:42;;;;;;;48.63;30.98;;;22.60;96.10;;;;;;6246253;23;20000;-74
2023/10/10 00:35:11;;;;;;;50.20;32.67;;;22.60;96.10;;;;;;6246617;23;20010;-74
2023/10/10 00:37:37;;;;;;;49.72;32.58;;;22.50;96.10;;;;;;6246497;23;20004;-74
2023/10/10 00:40:08;;;;;;;46.88;31.88;;;22.50;96.10;;;;;;6219395;23;20326;-75
2023/10/10 00:42:37;;;;;;;50.60;32.88;;;22.50;96.10;;;;;;6246319;23;20004;-75
2023/10/10 00:45:09;;;;;;;47.28;29.95;;;22.40;96.20;;;;;;6246439;23;20000;-74
2023/10/10 00:47:40;;;;;;;47.45;31.20;;;22.40;96.10;;;;;;6246830;23;20391;-74
2023/10/10 00:50:15;;;;;;;44.97;28.30;;;22.40;96.10;;;;;;6245782;23;20000;-74
2023/10/10 00:52:51;;;;;;;52.92;31.48;;;22.40;96.10;;;;;;6246377;23;20008;-74
2023/10/10 00:55:21;;;;;;;52.80;33.15;;;22.40;96.10;;;;;;6245981;23;20047;-74
2023/10/10 00:57:52;;;;;;;51.47;29.95;;;22.40;96.10;;;;;;6246649;23;20058;-74
2023/10/10 01:00:19;;;;;;;50.05;29.95;;;22.50;96.20;;;;;;6244738;23;20027;-74
2023/10/10 01:02:45;;;;;;;48.17;30.65;;;22.40;96.10;;;;;;6219216;23;20426;-74
2023/10/10 01:05:15;;;;;;;43.28;29.15;;;22.40;96.10;;;;;;6245334;23;19996;-74
2023/10/10 01:07:46;;;;;;;45.55;29.00;;;22.40;96.10;;;;;;6245821;23;20011;-74
2023/10/10 01:10:13;;;;;;;43.40;29.67;;;22.40;96.20;;;;;;6245443;23;20075;-74
2023/10/10 01:12:40;;;;;;;51.42;33.05;;;22.40;96.20;;;;;;6218119;23;20107;-74
2023/10/10 01:15:13;;;;;;;50.92;33.50;;;22.40;96.20;;;;;;6244992;23;20004;-74
2023/10/10 01:17:38;;;;;;;50.85;32.13;;;22.40;96.20;;;;;;6245607;23;20364;-74
2023/10/10 01:20:14;;;;;;;43.58;29.10;;;22.30;96.30;;;;;;6245531;23;20024;-74
2023/10/10 01:22:46;;;;;;;44.40;29.15;;;22.30;96.30;;;;;;6245775;23;20079;-74
2023/10/10 01:27:57;;;;;;;49.20;30.67;;;22.30;96.40;;;;;;6245199;23;20035;-74
2023/10/10 01:30:57;;;;;;;47.90;31.45;;;22.30;96.30;;;;;;6243014;23;20004;-82
2023/10/10 01:33:22;;;;;;;48.35;30.33;;;22.40;96.30;;;;;;6244575;23;20012;-81
2023/10/10 01:35:49;;;;;;;42.97;29.30;;;22.40;96.30;;;;;;6245338;23;19996;-81
2023/10/10 01:38:55;;;;;;;42.00;29.48;;;22.50;96.20;;;;;;6244749;23;20008;-80
2023/10/10 01:41:31;;;;;;;46.65;29.88;;;22.60;96.10;;;;;;6199548;23;20015;-81
2023/10/10 01:44:10;;;;;;;42.30;28.83;;;22.60;96.10;;;;;;6245807;23;20007;-82
2023/10/10 01:46:36;;;;;;;44.30;29.67;;;22.60;96.10;;;;;;6245481;23;20007;-82
2023/10/10 01:49:02;;;;;;;43.70;28.98;;;22.60;96.00;;;;;;6245520;23;20001;-82
2023/10/10 01:51:34;;;;;;;46.40;30.17;;;22.70;96.00;;;;;;6244543;23;20319;-83
2023/10/10 01:54:11;;;;;;;44.42;29.33;;;22.70;95.90;;;;;;6245935;23;20011;-82
2023/10/10 01:56:38;;;;;;;41.70;26.90;;;22.60;95.70;;;;;;6245792;23;20016;-82
2023/10/10 01:59:04;;;;;;;52.00;31.83;;;22.60;95.80;;;;;;6246152;23;20000;-81
2023/10/10 02:01:31;;;;;;;44.05;30.17;;;22.60;95.70;;;;;;6243285;23;20004;-82
2023/10/10 02:03:58;;;;;;;45.03;29.13;;;22.60;95.80;;;;;;6245327;23;20000;-81
2023/10/10 02:06:28;;;;;;;45.75;30.23;;;22.50;95.80;;;;;;6245728;23;20000;-82
2023/10/10 02:09:10;;;;;;;41.53;26.67;;;22.50;95.80;;;;;;6218592;23;20007;-82
2023/10/10 02:11:36;;;;;;;45.55;30.15;;;22.60;95.80;;;;;;6244621;23;20061;-82
2023/10/10 02:14:02;;;;;;;40.47;26.30;;;22.60;95.70;;;;;;6245445;23;20411;-82
2023/10/10 02:16:35;;;;;;;52.70;33.88;;;22.60;95.70;;;;;;6244986;23;20054;-82
2023/10/10 02:19:15;;;;;;;37.58;25.50;;;22.60;95.70;;;;;;6244933;23;20004;-82
2023/10/10 02:21:48;;;;;;;37.33;27.25;;;22.50;95.70;;;;;;6244002;23;20007;-82
2023/10/10 02:26:56;;;;;;;45.25;29.38;;;22.50;95.70;;;;;;6245901;23;20342;-82
2023/10/10 02:32:07;;;;;;;46.28;29.58;;;22.50;95.60;;;;;;6245912;23;20008;-82
2023/10/10 02:34:36;;;;;;;37.58;24.60;;;22.40;95.70;;;;;;6245731;23;20004;-82
2023/10/10 02:37:54;;;;;;;35.88;24.77;;;22.40;95.70;;;;;;6245569;23;20004;-81
2023/10/10 02:40:07;;;;;;;41.60;27.92;;;22.40;95.80;;;;;;6228527;23;20031;-81
2023/10/10 02:42:33;;;;;;;39.17;26.75;;;22.40;95.80;;;;;;6244423;23;20011;-82
2023/10/10 02:45:00;;;;;;;38.95;25.77;;;22.40;95.70;;;;;;6245511;23;20000;-81
2023/10/10 02:47:32;;;;;;;35.13;25.73;;;22.40;95.80;;;;;;6245731;23;20004;-81
2023/10/10 02:50:39;;;;;;;37.85;25.67;;;22.40;95.70;;;;;;6245648;23;20054;-81
2023/10/10 02:53:00;;;;;;;39.55;26.42;;;22.40;95.70;;;;;;6245135;23;20004;-81
2023/10/10 02:55:33;;;;;;;38.10;26.00;;;22.40;95.60;;;;;;6218298;23;20098;-80
2023/10/10 02:57:59;;;;;;;37.13;24.67;;;22.40;95.60;;;;;;6245876;23;20000;-81
2023/10/10 03:02:54;;;;;;;39.88;24.83;;;22.50;95.40;;;;;;6246807;23;20307;-82
2023/10/10 03:08:14;;;;;;;34.78;24.13;;;22.40;95.30;;;;;;6246452;23;20034;-82
2023/10/10 03:10:45;;;;;;;33.45;23.58;;;22.40;95.40;;;;;;6246854;23;20001;-83
2023/10/10 03:15:56;;;;;;;35.63;23.15;;;22.40;95.40;;;;;;6247157;23;20067;-82
2023/10/10 03:18:29;;;;;;;38.90;22.17;;;22.40;95.40;;;;;;6246628;23;20434;-82
2023/10/10 03:23:56;;;;;;;31.88;20.88;;;22.30;95.30;;;;;;6247941;23;20418;-84
2023/10/10 03:26:59;;;;;;;24.00;18.20;;;22.20;95.30;;;;;;6220360;23;20011;-84
2023/10/10 03:30:17;;;;;;;30.50;19.55;;;22.20;95.40;;;;;;6252801;23;20012;-82
2023/10/10 03:34:56;;;;;;;33.13;21.88;;;22.10;95.50;;;;;;6249492;23;20018;-86
2023/10/10 03:40:05;;;;;;;26.27;18.23;;;22.10;95.50;;;;;;6249808;23;20008;-86
2023/10/10 05:24:19;;;;;;;22.30;16.40;;;22.30;94.50;;;;;;6245945;23;20391;-83
2023/10/10 05:26:47;;;;;;;23.50;16.42;;;22.30;94.50;;;;;;6245924;23;20084;-83
2023/10/10 05:29:14;;;;;;;26.13;16.60;;;22.20;94.50;;;;;;6244960;23;20831;-82
2023/10/10 05:31:39;;;;;;;26.67;16.60;;;22.30;94.40;;;;;;6245441;23;20011;-86
2023/10/10 05:34:07;;;;;;;23.45;16.45;;;22.30;94.50;;;;;;6219682;23;20008;-87
2023/10/10 05:36:34;;;;;;;32.83;20.50;;;22.10;94.50;;;;;;6245630;23;20014;-86
2023/10/10 05:39:00;;;;;;;25.73;16.50;;;22.10;94.50;;;;;;6245456;23;20000;-87
2023/10/10 05:41:27;;;;;;;24.02;14.70;;;22.00;94.70;;;;;;6245466;23;20008;-87
2023/10/10 05:43:56;;;;;;;21.88;16.17;;;22.00;94.70;;;;;;6246412;23;20000;-87
2023/10/10 05:46:21;;;;;;;21.92;13.88;;;21.90;94.70;;;;;;6245516;23;20058;-87
2023/10/10 05:48:47;;;;;;;24.42;16.77;;;21.90;94.80;;;;;;6244963;23;20075;-87
2023/10/10 05:51:13;;;;;;;22.80;15.57;;;21.90;94.70;;;;;;6244242;23;20014;-87
2023/10/10 05:53:39;;;;;;;20.80;14.77;;;21.90;94.70;;;;;;6245235;23;20000;-86
2023/10/10 05:56:16;;;;;;;21.83;15.18;;;22.00;94.90;;;;;;6245348;23;20350;-86
2023/10/10 05:58:45;;;;;;;21.10;13.68;;;22.00;94.60;;;;;;6245244;23;20000;-86
2023/10/10 06:01:12;;;;;;;19.55;13.65;;;22.00;94.60;;;;;;6244866;23;20008;-86
2023/10/10 06:03:41;;;;;;;27.08;15.05;;;22.00;94.60;;;;;;6244067;23;20028;-87
2023/10/10 06:06:12;;;;;;;22.03;15.53;;;22.00;94.60;;;;;;6247257;23;19996;-86
2023/10/10 06:08:41;;;;;;;26.55;16.30;;;22.10;94.50;;;;;;6245120;23;20254;-85
2023/10/10 06:11:08;;;;;;;24.75;15.25;;;22.10;94.40;;;;;;6244788;23;20355;-76
2023/10/10 06:13:39;;;;;;;20.42;14.30;;;22.10;94.40;;;;;;6245522;23;20000;-74
2023/10/10 06:16:12;;;;;;;24.60;15.82;;;22.10;94.50;;;;;;6244910;23;20004;-75
2023/10/10 06:18:42;;;;;;;20.02;13.68;;;22.10;94.50;;;;;;6243709;23;20779;-76
2023/10/10 06:21:09;;;;;;;20.75;14.30;;;22.10;94.50;;;;;;6243172;23;20004;-76
2023/10/10 06:23:36;;;;;;;22.92;14.35;;;22.10;94.50;;;;;;6244545;23;20000;-76
2023/10/10 06:26:04;;;;;;;19.85;13.73;;;22.00;94.50;;;;;;6245513;23;20002;-85
2023/10/10 06:28:35;;;;;;;22.98;14.70;;;22.10;94.80;;;;;;6248176;23;20075;-86
2023/10/10 06:31:02;;;;;;;28.85;15.02;;;22.20;94.50;;;;;;6246997;23;20058;-86
2023/10/10 06:33:28;;;;;;;20.80;14.88;;;22.20;94.40;;;;;;6221311;23;20325;-87
2023/10/10 06:41:28;;;;;;;21.35;13.77;;;22.30;94.20;;;;;;6251143;23;20342;-86
2023/10/10 06:43:54;;;;;;;17.50;12.52;;;22.40;94.10;;;;;;6247123;23;20063;-85
2023/10/10 06:46:23;;;;;;;17.90;13.43;;;22.40;94.10;;;;;;6248329;23;20000;-87
2023/10/10 06:48:50;;;;;;;19.88;13.55;;;22.40;94.00;;;;;;6247228;23;19996;-86
2023/10/10 06:51:21;;;;;;;19.25;13.57;;;22.40;94.00;;;;;;6247077;23;20000;-85
2023/10/10 06:53:49;;;;;;;23.05;14.45;;;22.40;94.00;;;;;;6246758;23;20057;-85
2023/10/10 06:56:15;;;;;;;20.30;13.13;;;22.50;94.00;;;;;;6246447;23;20012;-86
2023/10/10 06:58:47;;;;;;;19.10;12.68;;;22.50;93.90;;;;;;6247823;23;20035;-87
2023/10/10 07:01:18;;;;;;;23.00;14.57;;;22.50;93.90;;;;;;6247583;23;20015;-86
2023/10/10 07:03:54;;;;;;;19.05;12.70;;;22.60;93.90;;;;;;6246665;23;19997;-87
2023/10/10 07:06:28;;;;;;;21.00;13.15;;;22.50;93.90;;;;;;6246689;23;20016;-87
2023/10/10 07:11:39;;;;;;;21.98;14.50;;;22.50;93.90;;;;;;6248033;23;20357;-86
2023/10/10 07:14:08;;;;;;;20.02;14.63;;;22.50;94.00;;;;;;6247286;23;20004;-86
2023/10/10 07:16:34;;;;;;;21.58;14.95;;;22.60;94.00;;;;;;6249678;23;20008;-86
2023/10/10 07:19:18;;;;;;;22.80;14.55;;;22.60;94.10;;;;;;6247255;23;20304;-86
2023/10/10 07:21:45;;;;;;;19.95;14.18;;;22.60;94.10;;;;;;6244983;23;20008;-86
2023/10/10 07:24:14;;;;;;;19.65;13.55;;;22.60;94.10;;;;;;6246661;23;20003;-86
2023/10/10 07:26:43;;;;;;;22.60;15.13;;;22.70;94.10;;;;;;6245864;23;20000;-86
2023/10/10 07:32:18;;;;;;;22.13;15.27;;;22.80;94.00;;;;;;6196878;23;20012;-86
2023/10/10 07:34:51;;;;;;;25.67;15.40;;;22.90;94.00;;;;;;6220534;23;20004;-86
2023/10/10 07:37:22;;;;;;;19.63;15.18;;;23.00;93.90;;;;;;6247113;23;20023;-86
2023/10/10 07:40:14;;;;;;;30.58;14.75;;;23.00;93.80;;;;;;6248293;23;20490;-87
2023/10/10 07:42:58;;;;;;;23.98;15.15;;;23.10;93.80;;;;;;6244245;23;20018;-87
2023/10/10 07:50:46;;;;;;;25.33;15.35;;;23.10;93.60;;;;;;6250904;23;20091;-86
2023/10/10 07:53:13;;;;;;;24.63;16.00;;;23.20;93.60;;;;;;6248420;23;20370;-76
2023/10/10 07:58:43;;;;;;;21.30;14.13;;;23.20;93.60;;;;;;6227385;23;20434;-75
2023/10/10 08:01:16;;;;;;;22.42;15.52;;;23.30;93.60;;;;;;6218902;23;20094;-76
2023/10/10 08:03:46;;;;;;;26.48;16.60;;;23.30;93.60;;;;;;6240798;23;20153;-73
2023/10/10 08:06:17;;;;;;;;;;;23.40;93.70;;;;;;6219044;23;20007;-74
2023/10/10 08:08:45;;;;;;;23.23;14.15;;;23.40;93.60;;;;;;6246534;23;19903;-82
2023/10/10 08:11:13;;;;;;;20.63;14.57;;;23.40;93.70;;;;;;6245250;23;20077;-81
2023/10/10 08:13:48;;;;;;;22.35;15.52;;;23.50;93.70;;;;;;6244536;23;20028;-82
2023/10/10 08:16:20;;;;;;;27.17;15.20;;;23.60;93.60;;;;;;6246849;23;20004;-82
2023/10/10 08:21:22;;;;;;;21.95;14.50;;;23.60;93.60;;;;;;6242949;23;20016;-79
2023/10/10 08:23:56;;;;;;;22.02;15.20;;;23.70;93.60;;;;;;6218347;23;20004;-79
2023/10/10 08:26:26;;;;;;;23.13;15.50;;;23.70;93.50;;;;;;6246505;23;20022;-78
2023/10/10 08:28:53;;;;;;;24.30;15.75;;;23.80;93.40;;;;;;6244542;23;20049;-78
2023/10/10 08:31:19;;;;;;;27.55;17.02;;;23.80;93.40;;;;;;6245449;23;20001;-77
2023/10/10 08:33:46;;;;;;;25.60;16.85;;;23.90;93.40;;;;;;6245824;23;20011;-78
2023/10/10 08:36:24;;;;;;;24.50;15.57;;;23.80;93.20;;;;;;6246689;23;20028;-77
2023/10/10 08:38:54;;;;;;;23.40;15.68;;;23.90;93.30;;;;;;6245985;23;20505;-78
2023/10/10 08:41:26;;;;;;;24.90;17.15;;;23.90;93.30;;;;;;6243085;23;20004;-80
2023/10/10 08:44:01;;;;;;;25.75;16.45;;;24.00;93.40;;;;;;6245852;23;20011;-80
2023/10/10 08:46:31;;;;;;;23.67;18.00;;;24.00;93.30;;;;;;6246151;23;20434;-85
2023/10/10 08:48:58;;;;;;;;;;;24.00;93.40;;;;;;6220348;23;20006;-88
2023/10/10 08:51:39;;;;;;;27.73;16.50;;;24.00;93.30;;;;;;6220198;23;19899;-86
2023/10/10 08:54:09;;;;;;;22.55;15.82;;;24.00;93.40;;;;;;6246739;23;20015;-85
2023/10/10 08:57:26;;;;;;;27.60;17.30;;;24.10;93.40;;;;;;6245367;23;20008;-87
2023/10/10 08:59:42;;;;;;;27.23;15.23;;;24.20;93.40;;;;;;6240716;23;20727;-87
2023/10/10 09:02:16;;;;;;;;;;;24.30;93.30;;;;;;6245377;23;20098;-79
2023/10/10 09:04:46;;;;;;;23.05;15.98;;;24.40;93.20;;;;;;6246484;23;20210;-79
2023/10/10 09:07:20;;;;;;;23.65;16.58;;;24.40;93.20;;;;;;6244735;23;20004;-78
2023/10/10 09:09:55;;;;;;;23.58;16.23;;;24.50;93.10;;;;;;6244272;23;19996;-77
2023/10/10 09:12:21;;;;;;;24.20;16.27;;;24.60;93.00;;;;;;6243889;23;20370;-77
2023/10/10 09:14:50;;;;;;;25.27;17.80;;;24.60;93.00;;;;;;6245411;23;20075;-77
2023/10/10 09:17:28;;;;;;;23.17;16.03;;;24.70;92.90;;;;;;6243265;23;20330;-78
2023/10/10 09:19:57;;;;;;;21.23;16.15;;;24.70;92.80;;;;;;6247821;23;20057;-87
2023/10/10 09:22:34;;;;;;;27.10;15.98;;;24.80;92.80;;;;;;6244011;23;20000;-82
2023/10/10 09:25:17;;;;;;;23.95;16.25;;;24.80;92.80;;;;;;6246026;23;20000;-78
2023/10/10 09:27:57;;;;;;;26.05;16.65;;;24.80;92.60;;;;;;6244019;23;20020;-78
2023/10/10 09:30:31;;;;;;;28.43;18.10;;;24.90;92.50;;;;;;6243140;23;20000;-78
2023/10/10 09:36:08;;;;;;;25.33;16.30;;;25.00;92.50;;;;;;6194767;23;20012;-78
2023/10/10 09:38:36;;;;;;;19.63;15.00;;;25.00;92.40;;;;;;6246144;23;20489;-78
2023/10/10 09:41:26;;;;;;;23.40;17.27;;;25.10;92.40;;;;;;6245121;23;20470;-79
2023/10/10 09:55:38;;;;;;;19.42;13.90;;;25.50;91.50;;;;;;6246047;23;20039;-78
2023/10/10 09:58:01;;;;;;;21.45;15.30;;;25.60;91.70;;;;;;6245549;23;20081;-78
2023/10/10 10:09:09;;;;;;;23.50;14.48;;;25.90;90.30;;;;;;6246122;23;20358;-78
2023/10/10 10:12:12;;;;;;;20.80;15.07;;;25.80;90.60;;;;;;6245788;23;20012;-78
2023/10/10 10:15:05;;;;;;;22.77;16.17;;;25.90;90.60;;;;;;6245909;23;20007;-78
2023/10/10 10:17:49;;;;;;;21.27;13.95;;;25.90;90.40;;;;;;6246252;23;20016;-77
2023/10/10 10:20:48;;;;;;;20.80;14.15;;;25.90;90.50;;;;;;6246102;23;20075;-77
2023/10/10 10:23:26;;;;;;;18.17;12.35;;;25.90;90.70;;;;;;6246351;23;20000;-77
2023/10/10 10:26:21;;;;;;;18.90;13.02;;;26.10;90.70;;;;;;6245982;23;19997;-78
2023/10/10 10:28:56;;;;;;;18.73;12.73;;;26.30;90.70;;;;;;6219111;23;20001;-79
2023/10/10 10:31:29;;;;;;;21.73;15.65;;;26.60;90.60;;;;;;6245380;23;20014;-77
2023/10/10 10:34:23;;;;;;;29.65;20.02;;;26.90;89.90;;;;;;6218765;23;20004;-77
2023/10/10 10:37:06;;;;;;;22.77;15.60;;;27.10;88.10;;;;;;6219214;23;20004;-77
2023/10/10 10:39:35;;;;;;;27.42;15.88;;;27.10;87.90;;;;;;6245919;23;20008;-76
2023/10/10 10:42:02;;;;;;;20.10;14.25;;;27.00;88.00;;;;;;6245909;23;20038;-76
2023/10/10 10:44:43;;;;;;;19.15;14.68;;;26.90;88.40;;;;;;6245443;23;20054;-77
2023/10/10 10:47:31;;;;;;;22.27;15.93;;;26.90;87.30;;;;;;6245673;23;20000;-77
2023/10/10 10:49:57;;;;;;;20.98;15.55;;;26.80;87.30;;;;;;6224803;23;20071;-77
2023/10/10 10:52:45;;;;;;;19.98;14.68;;;26.80;87.30;;;;;;6245392;23;20004;-77
2023/10/10 10:55:27;;;;;;;20.92;15.00;;;26.90;87.30;;;;;;6245588;23;20038;-77
2023/10/10 10:58:05;;;;;;;22.35;14.35;;;26.80;87.40;;;;;;6245972;23;20031;-78
2023/10/10 11:03:24;;;;;;;;;;;26.80;87.20;;;;;;6248155;23;20018;-77
2023/10/10 11:05:57;;;;;;;21.13;13.80;;;26.80;87.30;;;;;;6245988;23;20242;-76
2023/10/10 11:14:00;;;;;;;17.52;12.25;;;26.80;87.50;;;;;;6246221;23;20027;-77
2023/10/10 11:16:39;;;;;;;18.20;12.57;;;26.80;87.40;;;;;;6245702;23;20004;-79
2023/10/10 11:21:48;;;;;;;17.17;12.45;;;27.10;87.60;;;;;;6249129;23;20431;-77
2023/10/10 11:24:25;;;;;;;17.63;13.18;;;27.20;87.40;;;;;;6247904;23;20011;-77
2023/10/10 11:29:47;;;;;;;17.27;11.90;;;28.00;86.20;;;;;;6246962;23;20048;-78
2023/10/10 11:32:16;;;;;;;17.30;12.07;;;28.40;86.10;;;;;;6246655;23;20317;-77
2023/10/10 11:34:42;;;;;;;16.33;12.13;;;28.60;85.50;;;;;;6246765;23;20004;-78
2023/10/10 11:37:32;;;;;;;18.40;12.70;;;28.70;84.50;;;;;;6247605;23;20014;-77
2023/10/10 11:42:56;;;;;;;17.83;12.57;;;28.80;84.00;;;;;;6247791;23;20012;-78
2023/10/10 11:45:26;;;;;;;19.17;13.25;;;28.90;83.30;;;;;;6247264;23;20028;-77
2023/10/10 11:47:53;;;;;;;19.27;13.98;;;29.00;82.80;;;;;;6247229;23;20031;-77
2023/10/10 11:50:29;;;;;;;17.73;12.63;;;29.00;82.20;;;;;;6247534;23;20375;-78
2023/10/10 11:53:01;;;;;;;17.75;13.27;;;29.10;82.70;;;;;;6220652;23;20095;-78
2023/10/10 11:55:28;;;;;;;20.88;15.10;;;29.10;82.20;;;;;;6230486;22;20461;-79
2023/10/10 11:57:58;;;;;;;18.15;13.23;;;29.10;81.70;;;;;;6189358;23;20024;-77
2023/10/10 12:00:36;;;;;;;;;;;29.00;81.70;;;;;;6216693;23;20430;-78
2023/10/10 12:03:05;;;;;;;19.73;13.90;;;28.80;81.40;;;;;;6215584;23;20253;-78
2023/10/10 12:08:05;;;;;;;19.30;13.55;;;28.70;82.60;;;;;;6217780;23;20339;-78
2023/10/10 12:13:35;;;;;;;20.83;13.20;;;28.60;82.20;;;;;;6216489;23;20077;-78
2023/10/10 12:16:10;;;;;;;21.27;15.02;;;28.70;82.60;;;;;;6216328;23;20019;-78
2023/10/10 12:18:43;;;;;;;18.45;13.38;;;28.90;82.00;;;;;;6216036;23;20001;-78
2023/10/10 12:21:10;;;;;;;20.55;14.63;;;29.00;81.60;;;;;;6216247;23;20009;-78
2023/10/10 12:23:36;;;;;;;23.10;14.85;;;29.00;81.00;;;;;;6216609;23;20000;-78
2023/10/10 12:26:04;;;;;;;16.27;12.60;;;29.00;81.10;;;;;;6216612;23;20481;-78
2023/10/10 12:28:30;;;;;;;19.67;13.55;;;29.00;81.20;;;;;;6216464;23;20023;-78
2023/10/10 12:31:02;;;;;;;21.33;14.80;;;29.10;81.60;;;;;;6215436;23;20454;-78
2023/10/10 12:33:28;;;;;;;18.52;12.80;;;29.20;81.20;;;;;;6215932;23;19998;-78
2023/10/10 12:35:56;;;;;;;19.23;14.43;;;29.30;81.20;;;;;;6188942;23;20031;-78
2023/10/10 12:38:23;;;;;;;17.52;12.70;;;29.50;80.80;;;;;;6217284;23;19989;-88
2023/10/10 12:40:53;;;;;;;22.85;14.27;;;29.50;80.50;;;;;;6217907;23;20000;-88
2023/10/10 12:43:20;;;;;;;19.38;14.35;;;29.60;80.30;;;;;;6215458;23;20096;-79
2023/10/10 12:45:46;;;;;;;25.95;15.30;;;29.50;79.70;;;;;;6214335;23;20004;-78
2023/10/10 12:48:20;;;;;;;29.13;15.23;;;29.40;79.80;;;;;;6215524;23;19997;-77
2023/10/10 12:50:47;;;;;;;20.83;13.98;;;29.30;80.30;;;;;;6215526;23;20434;-77
2023/10/10 12:53:19;;;;;;;22.40;17.50;;;29.20;80.40;;;;;;6215605;23;20028;-76
2023/10/10 12:55:48;;;;;;;19.23;14.70;;;29.10;80.20;;;;;;6215189;23;20454;-76
2023/10/10 12:58:24;;;;;;;19.92;14.43;;;29.00;80.70;;;;;;6189222;23;20011;-77
2023/10/10 13:00:51;;;;;;;21.85;13.68;;;28.80;81.10;;;;;;6215125;23;20084;-76
2023/10/10 13:03:18;;;;;;;20.55;14.30;;;28.60;81.00;;;;;;6214476;23;20104;-77
2023/10/10 13:05:47;;;;;;;21.83;15.00;;;28.40;81.40;;;;;;6209604;23;20028;-77
2023/10/10 13:08:15;;;;;;;22.08;15.20;;;28.30;81.60;;;;;;6185159;23;20005;-77
2023/10/10 13:10:42;;;;;;;22.50;15.95;;;28.20;81.90;;;;;;6211532;23;20001;-77
2023/10/10 13:13:08;;;;;;;21.58;14.80;;;28.00;82.10;;;;;;6211550;23;20008;-76
2023/10/10 13:15:47;;;;;;;28.05;18.02;;;28.00;82.30;;;;;;6183129;23;20058;-77
2023/10/10 13:18:19;;;;;;;16.13;14.00;;;27.90;82.80;;;;;;6212224;23;20004;-76
2023/10/10 13:20:53;;;;;;;19.45;14.45;;;27.80;82.80;;;;;;6212604;23;20055;-76
2023/10/10 13:23:20;;;;;;;23.60;14.50;;;27.80;83.20;;;;;;6186763;23;20541;-87
2023/10/10 13:25:49;;;;;;;22.90;14.88;;;27.70;83.70;;;;;;6214476;23;20000;-77
2023/10/10 13:28:20;;;;;;;20.05;14.38;;;27.70;83.80;;;;;;6214163;23;20492;-77
2023/10/10 13:30:46;;;;;;;22.33;14.88;;;27.60;84.20;;;;;;6214467;23;20001;-77
2023/10/10 13:33:16;;;;;;;22.10;16.17;;;27.50;84.80;;;;;;6189435;23;20300;-78
2023/10/10 13:35:44;;;;;;;19.50;15.02;;;27.50;85.10;;;;;;6213347;23;20011;-79
2023/10/10 13:38:10;;;;;;;19.33;13.73;;;27.50;85.10;;;;;;6188891;23;20087;-78
2023/10/10 13:40:45;;;;;;;24.02;14.57;;;27.40;85.10;;;;;;6189217;23;20004;-77
2023/10/10 13:43:16;;;;;;;20.63;13.98;;;27.40;85.10;;;;;;6215490;23;20011;-77
2023/10/10 13:45:43;;;;;;;21.98;14.82;;;27.40;85.40;;;;;;6189433;23;20004;-77
2023/10/10 13:48:09;;;;;;;22.38;14.75;;;27.40;85.30;;;;;;6215323;23;20031;-78
2023/10/10 13:50:41;;;;;;;19.05;12.90;;;27.30;85.10;;;;;;6215484;23;20001;-77
2023/10/10 13:53:11;;;;;;;22.30;14.32;;;27.30;85.20;;;;;;6215703;23;20441;-77
2023/10/10 13:55:38;;;;;;;;;;;27.20;85.20;;;;;;6189356;23;20020;-77
2023/10/10 13:58:09;;;;;;;20.02;14.05;;;27.20;85.50;;;;;;6189611;23;19907;-77
2023/10/10 14:00:39;;;;;;;16.75;12.32;;;27.20;85.50;;;;;;6214857;23;20051;-78
2023/10/10 14:03:05;;;;;;;17.58;13.15;;;27.20;85.70;;;;;;6188977;23;20012;-78
2023/10/10 14:05:41;;;;;;;19.83;13.35;;;27.10;85.70;;;;;;6215376;23;20386;-78
2023/10/10 14:08:09;;;;;;;21.33;14.13;;;27.10;86.00;;;;;;6188971;23;20001;-78
2023/10/10 14:10:39;;;;;;;20.75;13.95;;;27.10;86.00;;;;;;6189207;23;20008;-78
2023/10/10 14:13:23;;;;;;;21.77;13.65;;;27.00;86.00;;;;;;6214894;23;20035;-78
2023/10/10 14:16:01;;;;;;;17.50;12.68;;;27.00;86.00;;;;;;6211961;23;20005;-78
2023/10/10 14:18:31;;;;;;;20.23;14.52;;;27.00;86.40;;;;;;6214660;23;20001;-79
2023/10/10 14:21:07;;;;;;;17.70;13.60;;;27.00;86.40;;;;;;6188392;23;20005;-78
2023/10/10 14:23:35;;;;;;;20.65;13.45;;;27.00;86.60;;;;;;6215274;23;20023;-78
2023/10/10 14:29:04;;;;;;;17.35;13.32;;;26.90;86.70;;;;;;6190701;23;20028;-78
2023/10/10 14:31:33;;;;;;;20.15;12.77;;;26.90;86.70;;;;;;6215402;23;20008;-78
2023/10/10 14:34:00;;;;;;;16.25;12.25;;;26.90;86.80;;;;;;6215395;23;20362;-78
2023/10/10 14:36:39;;;;;;;19.50;14.48;;;26.90;86.80;;;;;;6190149;23;20433;-89
2023/10/10 14:39:28;;;;;;;18.63;13.45;;;27.00;87.00;;;;;;6216946;23;20075;-78
2023/10/10 14:41:59;;;;;;;21.25;14.20;;;26.90;87.00;;;;;;6215247;23;20017;-79
2023/10/10 14:44:26;;;;;;;22.73;13.35;;;26.90;87.30;;;;;;6188887;23;20005;-77
2023/10/10 14:46:57;;;;;;;19.38;13.93;;;26.90;87.20;;;;;;6188805;23;20172;-76
2023/10/10 14:49:29;;;;;;;17.80;14.80;;;26.90;87.30;;;;;;6214653;23;20088;-76
2023/10/10 14:51:56;;;;;;;17.38;13.90;;;26.90;87.20;;;;;;6215670;23;20009;-76
2023/10/10 14:54:23;;;;;;;21.02;14.38;;;26.80;87.40;;;;;;6216502;23;20004;-77
2023/10/10 14:56:52;;;;;;;18.80;13.82;;;26.80;87.50;;;;;;6216996;23;20091;-77
2023/10/10 14:59:24;;;;;;;21.05;13.93;;;26.80;87.70;;;;;;6217562;23;20009;-77
2023/10/10 15:01:50;;;;;;;20.83;15.15;;;26.70;87.70;;;;;;6217457;23;20323;-77
2023/10/10 15:04:17;;;;;;;20.48;14.18;;;26.70;87.80;;;;;;6217245;23;20012;-77
2023/10/10 15:06:44;;;;;;;25.27;15.27;;;26.60;87.80;;;;;;6190733;23;20055;-77
2023/10/10 15:09:19;;;;;;;20.42;12.75;;;26.60;87.80;;;;;;6190448;23;20000;-77
2023/10/10 15:11:46;;;;;;;19.17;13.40;;;26.60;87.90;;;;;;6217401;23;20079;-77
2023/10/10 15:14:12;;;;;;;19.38;13.02;;;26.60;88.10;;;;;;6190993;23;20067;-77
2023/10/10 15:16:39;;;;;;;19.33;14.55;;;26.60;88.50;;;;;;6217256;23;20035;-77
2023/10/10 15:19:09;;;;;;;18.30;13.88;;;26.50;88.60;;;;;;6190505;23;20011;-77
2023/10/10 15:21:35;;;;;;;18.70;14.47;;;26.50;88.90;;;;;;6217070;23;20031;-78
2023/10/10 15:24:02;;;;;;;19.60;14.63;;;26.50;89.20;;;;;;6217223;23;20004;-77
2023/10/10 15:26:28;;;;;;;22.63;13.73;;;26.40;89.40;;;;;;6215892;23;20000;-77
2023/10/10 15:28:54;;;;;;;22.02;15.20;;;26.40;89.50;;;;;;6213691;23;20008;-77
2023/10/10 15:31:25;;;;;;;19.90;13.93;;;26.40;89.50;;;;;;6188998;23;20338;-77
2023/10/10 15:33:52;;;;;;;21.15;14.52;;;26.30;89.60;;;;;;6216314;23;20007;-77
2023/10/10 15:36:18;;;;;;;23.27;14.95;;;26.30;89.90;;;;;;6216687;23;20001;-77
2023/10/10 15:38:44;;;;;;;21.20;13.60;;;26.20;90.00;;;;;;6190633;23;20005;-77
2023/10/10 15:41:21;;;;;;;23.08;13.95;;;26.30;90.20;;;;;;6217027;23;20020;-77
2023/10/10 15:43:48;;;;;;;20.80;14.10;;;26.30;90.30;;;;;;6216659;23;20000;-77
2023/10/10 15:46:18;;;;;;;20.75;14.85;;;26.20;90.30;;;;;;6190548;23;20001;-77
2023/10/10 15:48:51;;;;;;;17.88;13.90;;;26.20;90.50;;;;;;6217226;23;20001;-77
2023/10/10 15:51:20;;;;;;;17.70;13.55;;;26.20;90.50;;;;;;6190594;23;20027;-77
2023/10/10 15:53:46;;;;;;;22.40;14.57;;;26.20;90.50;;;;;;6216683;23;20004;-77
2023/10/10 15:56:17;;;;;;;16.30;13.48;;;26.10;90.50;;;;;;6216608;23;20017;-77
2023/10/10 15:58:49;;;;;;;20.55;14.15;;;26.10;90.60;;;;;;6190668;23;20013;-77
2023/10/10 16:01:27;;;;;;;22.10;14.50;;;26.10;90.60;;;;;;6216697;23;20012;-77
2023/10/10 16:04:12;;;;;;;20.75;13.73;;;26.00;90.60;;;;;;6216559;23;19996;-77
2023/10/10 16:06:39;;;;;;;23.70;14.40;;;26.00;90.70;;;;;;6216102;23;20004;-77